TES weather

Tesalia Airport
Tesalia, Huila Department, Colombia

Public forecast

Using degrees Celsius for public forecast. Weather courtesy of forecast.io.

Closest aviation weather report (METAR) to Tesalia Airport

Report is more than 6 hours old.

Closest report is Benito Salas Airport, 31.1 nm (57.6 km) NNE. Retrieved 2020/04/07 23:00 UTC (6 hours ago):

SKNV 072300Z 18006KT 140V220 9999 FEW040 BKN160 30/20 A2980

Closest aviation forecast (TAF) to Tesalia Airport

Closest forecast is Alfonso Bonilla Aragon International Airport, 85.9 nm (159.1 km) NW. Retrieved 2020-04-08 00:30 UTC (5 hours ago):

TAF SKCL 072230Z 0800/0824 12008KT 9999 FEW025 BKN120 PROB40 TEMPO 0806/0808 DZ FEW020TCU BKN100 BECMG 0819/0821 VCTS FEW020CB BKN100 TX33/0820Z TN21/0810Z